Time;durP1;ratioP1;P1;durP2;ratioP2;P2;SDS_P1;SDS_P2;PMS_P1;PMS_P2;Temp;Humidity;BMP_temperature;BMP_pressure;BME280_temperature;BME280_humidity;BME280_pressure;Samples;Min_cycle;Max_cycle;Signal;HPM_P1;HPM_P2
2023/11/11 00:01:59;;;;;;;16.10;9.80;;;;;;;;;;4331583;32;318738;-85
2023/11/11 00:04:26;;;;;;;13.37;9.50;;;;;;;;;;4321027;32;318755;-87
2023/11/11 00:06:53;;;;;;;16.07;10.13;;;;;;;;;;4331980;32;317728;-91
2023/11/11 00:09:22;;;;;;;11.47;8.27;;;;;;;;;;4304799;32;319770;-86
2023/11/11 00:11:49;;;;;;;11.43;8.00;;;;;;;;;;4318151;32;317969;-87
2023/11/11 00:14:17;;;;;;;10.83;7.70;;;;;;;;;;4316421;32;318671;-88
2023/11/11 00:16:44;;;;;;;11.67;7.67;;;;;;;;;;4333208;32;318810;-85
2023/11/11 00:19:13;;;;;;;11.70;7.97;;;;;;;;;;4318376;32;351372;-91
2023/11/11 00:21:42;;;;;;;15.43;9.80;;;;;;;;;;4328908;33;352079;-83
2023/11/11 00:24:10;;;;;;;11.67;8.03;;;;;;;;;;4316447;33;318204;-86
2023/11/11 00:26:40;;;;;;;8.67;7.20;;;;;;;;;;4316874;33;318265;-89
2023/11/11 00:29:08;;;;;;;13.97;8.67;;;;;;;;;;4313080;33;317194;-86
2023/11/11 00:31:36;;;;;;;12.07;7.60;;;;;;;;;;4324865;32;318403;-85
2023/11/11 00:34:03;;;;;;;11.23;8.03;;;;;;;;;;4322579;32;318214;-86
2023/11/11 00:36:30;;;;;;;10.77;7.87;;;;;;;;;;4331043;33;318300;-88
2023/11/11 00:38:57;;;;;;;12.97;9.87;;;;;;;;;;4328959;32;331164;-86
2023/11/11 00:41:25;;;;;;;19.30;11.37;;;;;;;;;;4312202;32;318313;-88
2023/11/11 00:43:53;;;;;;;18.43;12.87;;;;;;;;;;4325577;33;318869;-89
2023/11/11 00:46:20;;;;;;;22.87;12.23;;;;;;;;;;4305438;33;318845;-85
2023/11/11 00:48:47;;;;;;;14.67;10.60;;;;;;;;;;4315496;33;319438;-88
2023/11/11 00:51:13;;;;;;;14.97;11.10;;;;;;;;;;4310942;33;337728;-84
2023/11/11 00:53:40;;;;;;;17.10;11.77;;;;;;;;;;4333758;32;319906;-85
2023/11/11 00:56:07;;;;;;;18.23;10.37;;;;;;;;;;4325324;33;319396;-85
2023/11/11 00:58:34;;;;;;;18.17;11.80;;;;;;;;;;4333719;33;319670;-82
2023/11/11 01:01:03;;;;;;;9.57;8.43;;;;;;;;;;4333164;33;319798;-81
2023/11/11 01:03:30;;;;;;;15.27;8.93;;;;;;;;;;4318406;33;417934;-87
2023/11/11 01:05:56;;;;;;;11.87;8.93;;;;;;;;;;4333338;33;317644;-84
2023/11/11 01:08:23;;;;;;;13.57;10.60;;;;;;;;;;4315244;32;318395;-86
2023/11/11 01:10:50;;;;;;;18.07;9.63;;;;;;;;;;4327884;32;319303;-84
2023/11/11 01:13:17;;;;;;;12.20;9.17;;;;;;;;;;4315082;32;318399;-82
2023/11/11 01:15:45;;;;;;;13.33;8.40;;;;;;;;;;4317354;33;318045;-88
2023/11/11 01:18:13;;;;;;;11.90;8.47;;;;;;;;;;4308521;32;354669;-85
2023/11/11 01:20:40;;;;;;;8.37;7.43;;;;;;;;;;4332105;32;317785;-88
2023/11/11 01:23:07;;;;;;;8.83;6.77;;;;;;;;;;4318591;32;317717;-85
2023/11/11 01:25:34;;;;;;;10.60;7.53;;;;;;;;;;4316346;32;317554;-86
2023/11/11 01:28:00;;;;;;;8.57;7.33;;;;;;;;;;4319104;32;319250;-91
2023/11/11 01:30:27;;;;;;;10.00;6.87;;;;;;;;;;4323059;32;317734;-87
2023/11/11 01:32:54;;;;;;;9.87;6.30;;;;;;;;;;4333008;32;318335;-91
2023/11/11 01:35:23;;;;;;;10.07;6.00;;;;;;;;;;4314545;32;317508;-91
2023/11/11 01:37:51;;;;;;;10.53;6.27;;;;;;;;;;4328363;32;318587;-83
2023/11/11 01:40:18;;;;;;;8.80;6.63;;;;;;;;;;4315851;32;318302;-87
2023/11/11 01:42:45;;;;;;;10.63;7.90;;;;;;;;;;4318132;33;317286;-85
2023/11/11 01:45:12;;;;;;;9.33;5.70;;;;;;;;;;4314331;32;318842;-88
2023/11/11 01:47:39;;;;;;;7.27;5.23;;;;;;;;;;4330497;32;316638;-86
2023/11/11 01:50:09;;;;;;;8.23;6.03;;;;;;;;;;4322447;32;317316;-84
2023/11/11 01:52:37;;;;;;;11.63;6.57;;;;;;;;;;4332481;32;317238;-86
2023/11/11 01:55:07;;;;;;;8.53;5.60;;;;;;;;;;4316743;32;318325;-88
2023/11/11 01:57:34;;;;;;;6.20;5.47;;;;;;;;;;4314819;32;317063;-87
2023/11/11 02:00:06;;;;;;;9.37;5.80;;;;;;;;;;4333125;32;317380;-86
2023/11/11 02:02:33;;;;;;;8.77;5.23;;;;;;;;;;4319952;32;415611;-86
2023/11/11 02:05:00;;;;;;;9.53;5.53;;;;;;;;;;4333190;32;317272;-88
2023/11/11 02:07:27;;;;;;;9.63;4.57;;;;;;;;;;4313529;32;317629;-85
2023/11/11 02:09:55;;;;;;;5.90;4.73;;;;;;;;;;4323421;32;332821;-85
2023/11/11 02:12:23;;;;;;;9.97;5.47;;;;;;;;;;4322087;32;317095;-86
2023/11/11 02:14:50;;;;;;;13.63;6.30;;;;;;;;;;4327650;32;316766;-85
2023/11/11 02:17:17;;;;;;;7.40;5.00;;;;;;;;;;4315819;32;318558;-89
2023/11/11 02:19:44;;;;;;;10.93;5.67;;;;;;;;;;4332015;32;317439;-85
2023/11/11 02:22:11;;;;;;;11.47;5.77;;;;;;;;;;4319877;32;318676;-89
2023/11/11 02:24:41;;;;;;;5.73;4.87;;;;;;;;;;4326289;32;318555;-84
2023/11/11 02:27:08;;;;;;;11.53;6.57;;;;;;;;;;4306634;33;316834;-84
2023/11/11 02:29:44;;;;;;;9.17;6.57;;;;;;;;;;4319660;32;318659;-84
2023/11/11 02:32:11;;;;;;;8.60;6.50;;;;;;;;;;4321759;32;317187;-85
2023/11/11 02:34:38;;;;;;;11.43;7.40;;;;;;;;;;4319506;32;317532;-86
2023/11/11 02:37:05;;;;;;;9.10;6.80;;;;;;;;;;4322420;32;318451;-84
2023/11/11 02:39:32;;;;;;;23.83;13.47;;;;;;;;;;4314813;32;317383;-86
2023/11/11 02:42:00;;;;;;;14.00;8.47;;;;;;;;;;4330217;32;358386;-85
2023/11/11 02:44:27;;;;;;;11.93;9.30;;;;;;;;;;4316836;32;318508;-89
2023/11/11 02:46:54;;;;;;;18.20;8.03;;;;;;;;;;4317136;33;318455;-85
2023/11/11 02:49:21;;;;;;;13.77;10.87;;;;;;;;;;4297756;33;318697;-86
2023/11/11 02:51:48;;;;;;;12.87;10.87;;;;;;;;;;4327557;32;319630;-86
2023/11/11 02:54:14;;;;;;;21.70;13.67;;;;;;;;;;4318615;32;319591;-86
2023/11/11 02:56:41;;;;;;;14.03;8.10;;;;;;;;;;4319185;32;318818;-84
2023/11/11 02:59:09;;;;;;;10.90;7.87;;;;;;;;;;4319622;32;318711;-83
2023/11/11 03:01:37;;;;;;;10.60;7.63;;;;;;;;;;4337697;32;317764;-89
2023/11/11 03:04:04;;;;;;;8.97;7.43;;;;;;;;;;4310435;32;418103;-85
2023/11/11 03:06:32;;;;;;;9.03;7.50;;;;;;;;;;4332580;32;316546;-91
2023/11/11 03:08:59;;;;;;;10.00;7.80;;;;;;;;;;4314622;32;324384;-87
2023/11/11 03:11:26;;;;;;;9.03;6.33;;;;;;;;;;4326920;32;318144;-83
2023/11/11 03:13:53;;;;;;;13.37;6.50;;;;;;;;;;4314018;32;318297;-85
2023/11/11 03:16:21;;;;;;;10.43;7.60;;;;;;;;;;4331128;32;317618;-85
2023/11/11 03:18:48;;;;;;;11.97;7.67;;;;;;;;;;4321789;32;330735;-86
2023/11/11 03:21:20;;;;;;;11.80;7.87;;;;;;;;;;4332097;32;318076;-85
2023/11/11 03:23:47;;;;;;;14.30;8.33;;;;;;;;;;4315229;32;340961;-86
2023/11/11 03:26:14;;;;;;;9.00;7.23;;;;;;;;;;4322137;32;318504;-90
2023/11/11 03:28:41;;;;;;;10.47;7.37;;;;;;;;;;4316171;32;317579;-83
2023/11/11 03:31:08;;;;;;;15.40;8.33;;;;;;;;;;4316970;33;317774;-88
2023/11/11 03:33:36;;;;;;;12.00;7.83;;;;;;;;;;4316999;32;318119;-85
2023/11/11 03:36:03;;;;;;;14.33;8.10;;;;;;;;;;4307928;32;318305;-86
2023/11/11 03:38:29;;;;;;;9.00;7.37;;;;;;;;;;4328802;32;318599;-86
2023/11/11 03:40:57;;;;;;;8.20;6.87;;;;;;;;;;4314691;32;317171;-88
2023/11/11 03:43:24;;;;;;;8.43;6.47;;;;;;;;;;4331008;32;316600;-90
2023/11/11 03:45:51;;;;;;;9.30;7.20;;;;;;;;;;4304948;32;316656;-86
2023/11/11 03:48:18;;;;;;;11.67;8.40;;;;;;;;;;4316601;32;316975;-85
2023/11/11 03:50:46;;;;;;;11.43;8.57;;;;;;;;;;4321065;32;318626;-85
2023/11/11 03:53:13;;;;;;;13.93;7.80;;;;;;;;;;4322693;32;317490;-88
2023/11/11 03:55:40;;;;;;;11.03;7.70;;;;;;;;;;4310247;32;318365;-85
2023/11/11 03:58:07;;;;;;;13.70;9.20;;;;;;;;;;4323021;32;317845;-87
2023/11/11 04:00:34;;;;;;;12.33;8.77;;;;;;;;;;4319632;32;318628;-89
2023/11/11 04:03:01;;;;;;;12.13;6.93;;;;;;;;;;4305939;32;346186;-89
2023/11/11 04:05:28;;;;;;;9.57;6.50;;;;;;;;;;4317046;33;318057;-86
2023/11/11 04:07:56;;;;;;;16.70;13.60;;;;;;;;;;4299900;32;316691;-84
2023/11/11 04:10:23;;;;;;;18.23;11.90;;;;;;;;;;4328029;32;319289;-85
2023/11/11 04:12:50;;;;;;;16.27;11.30;;;;;;;;;;4320949;32;318803;-85
2023/11/11 04:15:17;;;;;;;17.40;10.83;;;;;;;;;;4331648;32;319964;-87
2023/11/11 04:17:44;;;;;;;11.03;8.73;;;;;;;;;;4320475;32;319394;-88
2023/11/11 04:20:12;;;;;;;11.67;9.00;;;;;;;;;;4325283;32;317497;-86
2023/11/11 04:22:39;;;;;;;10.23;8.60;;;;;;;;;;4331452;32;318396;-84
2023/11/11 04:25:08;;;;;;;10.17;7.67;;;;;;;;;;4314256;32;417726;-85
2023/11/11 04:27:35;;;;;;;16.93;7.47;;;;;;;;;;4314862;33;318173;-87
2023/11/11 04:30:06;;;;;;;11.57;8.40;;;;;;;;;;4309758;32;317609;-88
2023/11/11 04:32:33;;;;;;;15.50;9.97;;;;;;;;;;4331628;33;317659;-86
2023/11/11 04:35:00;;;;;;;11.93;8.60;;;;;;;;;;4321546;33;318257;-87
2023/11/11 04:37:27;;;;;;;12.03;8.23;;;;;;;;;;4330796;33;318590;-84
2023/11/11 04:39:57;;;;;;;17.23;12.20;;;;;;;;;;4309848;33;318433;-83
2023/11/11 04:42:26;;;;;;;23.07;14.57;;;;;;;;;;4316830;33;319083;-87
2023/11/11 04:44:53;;;;;;;17.47;13.87;;;;;;;;;;4312446;32;319277;-85
2023/11/11 04:47:20;;;;;;;26.57;16.90;;;;;;;;;;4333746;32;319744;-90
2023/11/11 04:49:48;;;;;;;12.57;10.07;;;;;;;;;;4321552;32;343745;-91
2023/11/11 04:52:14;;;;;;;14.10;10.07;;;;;;;;;;4329292;32;319461;-87
2023/11/11 04:54:42;;;;;;;15.97;10.97;;;;;;;;;;4316418;32;318980;-85
2023/11/11 04:57:09;;;;;;;11.10;8.60;;;;;;;;;;4318064;33;319637;-85
2023/11/11 04:59:37;;;;;;;9.63;7.70;;;;;;;;;;4325831;32;318112;-84
2023/11/11 05:02:04;;;;;;;9.93;7.97;;;;;;;;;;4324309;32;316321;-84
2023/11/11 05:04:31;;;;;;;12.33;7.97;;;;;;;;;;4337745;32;317330;-83
2023/11/11 05:06:58;;;;;;;12.07;6.43;;;;;;;;;;4335117;32;317917;-85
2023/11/11 05:09:26;;;;;;;14.10;7.40;;;;;;;;;;4344209;32;318488;-84
2023/11/11 05:11:53;;;;;;;14.07;8.27;;;;;;;;;;4315867;32;317685;-91
2023/11/11 05:14:20;;;;;;;8.17;7.37;;;;;;;;;;4331177;32;318470;-88
2023/11/11 05:16:52;;;;;;;10.83;8.33;;;;;;;;;;4307871;33;316896;-85
2023/11/11 05:19:19;;;;;;;11.37;8.03;;;;;;;;;;4319172;33;317614;-89
2023/11/11 05:21:46;;;;;;;13.07;9.00;;;;;;;;;;4308011;33;317656;-87
2023/11/11 05:24:14;;;;;;;18.50;10.07;;;;;;;;;;4315820;32;318069;-85
2023/11/11 05:26:43;;;;;;;26.17;13.87;;;;;;;;;;4311852;32;334848;-86
2023/11/11 05:29:10;;;;;;;35.77;22.47;;;;;;;;;;4324579;32;318740;-85
2023/11/11 05:31:37;;;;;;;31.27;21.23;;;;;;;;;;4332653;32;318872;-90
2023/11/11 05:34:05;;;;;;;31.27;23.60;;;;;;;;;;4315664;32;319062;-86
2023/11/11 05:36:33;;;;;;;44.67;25.67;;;;;;;;;;4333237;32;319437;-85
2023/11/11 05:39:00;;;;;;;44.67;30.47;;;;;;;;;;4317232;32;319509;-85
2023/11/11 05:41:29;;;;;;;33.20;24.20;;;;;;;;;;4324366;32;319948;-84
2023/11/11 05:43:56;;;;;;;30.63;19.30;;;;;;;;;;4301061;33;319268;-85
2023/11/11 05:46:24;;;;;;;29.87;17.97;;;;;;;;;;4331956;32;319648;-85
2023/11/11 05:48:52;;;;;;;29.80;20.60;;;;;;;;;;4322960;32;319537;-86
2023/11/11 05:51:21;;;;;;;26.63;21.23;;;;;;;;;;4331685;32;319699;-84
2023/11/11 05:53:48;;;;;;;30.83;21.00;;;;;;;;;;4317967;32;318912;-87
2023/11/11 05:56:15;;;;;;;35.07;20.63;;;;;;;;;;4318980;32;319324;-85
2023/11/11 05:58:42;;;;;;;27.10;19.00;;;;;;;;;;4317114;32;319709;-87
2023/11/11 06:01:09;;;;;;;36.13;26.50;;;;;;;;;;4333012;32;319221;-83
2023/11/11 06:03:37;;;;;;;70.30;49.00;;;;;;;;;;4331129;32;318738;-83
2023/11/11 06:06:05;;;;;;;79.70;56.90;;;;;;;;;;4315246;32;319427;-92
2023/11/11 06:08:33;;;;;;;72.53;51.87;;;;;;;;;;4329955;32;319133;-88
2023/11/11 06:11:01;;;;;;;32.23;21.73;;;;;;;;;;4313577;32;319372;-85
2023/11/11 06:13:29;;;;;;;33.83;22.03;;;;;;;;;;4330041;32;318781;-90
2023/11/11 06:15:55;;;;;;;38.07;23.90;;;;;;;;;;4314704;32;319759;-86
2023/11/11 06:18:23;;;;;;;30.60;19.90;;;;;;;;;;4333116;32;319414;-90
2023/11/11 06:20:50;;;;;;;28.37;21.20;;;;;;;;;;4322436;32;319173;-90
2023/11/11 06:23:17;;;;;;;34.10;20.53;;;;;;;;;;4329772;32;319542;-89
2023/11/11 06:25:45;;;;;;;27.00;21.20;;;;;;;;;;4312779;32;319331;-91
2023/11/11 06:28:12;;;;;;;24.70;18.63;;;;;;;;;;4320611;32;318818;-87
2023/11/11 06:30:38;;;;;;;30.37;19.30;;;;;;;;;;4316581;33;330303;-87
2023/11/11 06:33:05;;;;;;;35.07;22.03;;;;;;;;;;4307477;33;318673;-86
2023/11/11 06:35:34;;;;;;;27.87;17.10;;;;;;;;;;4329008;32;319319;-87
2023/11/11 06:38:01;;;;;;;22.33;15.97;;;;;;;;;;4302241;32;318962;-86
2023/11/11 06:40:28;;;;;;;25.07;16.43;;;;;;;;;;4320925;32;319361;-87
2023/11/11 06:42:56;;;;;;;18.60;13.90;;;;;;;;;;4320652;32;320024;-90
2023/11/11 06:45:23;;;;;;;18.07;13.90;;;;;;;;;;4325691;32;319540;-87
2023/11/11 06:47:50;;;;;;;20.17;12.20;;;;;;;;;;4302626;33;319505;-87
2023/11/11 06:50:18;;;;;;;17.40;13.07;;;;;;;;;;4320587;32;319346;-86
2023/11/11 06:52:45;;;;;;;20.47;12.47;;;;;;;;;;4321934;32;319404;-86
2023/11/11 06:55:12;;;;;;;17.30;13.23;;;;;;;;;;4329360;32;319732;-87
2023/11/11 06:57:42;;;;;;;19.60;14.73;;;;;;;;;;4331328;32;330721;-87
2023/11/11 07:00:15;;;;;;;21.40;16.50;;;;;;;;;;4313390;32;420659;-88
2023/11/11 07:02:43;;;;;;;33.57;21.90;;;;;;;;;;4324556;32;318780;-86
2023/11/11 07:05:11;;;;;;;37.43;24.73;;;;;;;;;;4321884;32;331105;-86
2023/11/11 07:07:40;;;;;;;24.20;19.40;;;;;;;;;;4333445;32;318789;-88
2023/11/11 07:10:11;;;;;;;24.73;15.13;;;;;;;;;;4306252;32;419335;-85
2023/11/11 07:12:38;;;;;;;28.53;22.47;;;;;;;;;;4334077;32;318957;-93
2023/11/11 07:15:07;;;;;;;30.17;20.47;;;;;;;;;;4321983;32;419829;-87
2023/11/11 07:17:35;;;;;;;32.63;22.17;;;;;;;;;;4332067;32;318698;-87
2023/11/11 07:20:04;;;;;;;29.70;22.30;;;;;;;;;;4317443;32;319369;-85
2023/11/11 07:22:32;;;;;;;31.17;23.17;;;;;;;;;;4329622;32;319393;-86
2023/11/11 07:24:59;;;;;;;31.27;21.67;;;;;;;;;;4321478;32;319907;-87
2023/11/11 07:27:27;;;;;;;32.97;22.17;;;;;;;;;;4339197;32;318688;-87
2023/11/11 07:29:57;;;;;;;27.70;20.20;;;;;;;;;;4329008;32;319233;-87
2023/11/11 07:32:24;;;;;;;32.03;22.53;;;;;;;;;;4346576;32;319283;-92
2023/11/11 07:34:52;;;;;;;33.57;24.00;;;;;;;;;;4325356;32;318996;-90
2023/11/11 07:37:19;;;;;;;29.77;19.37;;;;;;;;;;4331711;32;318642;-93
2023/11/11 07:39:46;;;;;;;28.93;19.57;;;;;;;;;;4324917;32;318898;-96
2023/11/11 07:42:13;;;;;;;42.00;32.50;;;;;;;;;;4327259;32;319544;-87
2023/11/11 07:44:40;;;;;;;34.87;25.80;;;;;;;;;;4324929;32;319419;-88
2023/11/11 07:47:07;;;;;;;32.00;22.17;;;;;;;;;;4332735;32;318581;-91
2023/11/11 07:49:34;;;;;;;22.90;16.93;;;;;;;;;;4332475;32;318714;-91
2023/11/11 07:52:03;;;;;;;23.60;17.53;;;;;;;;;;4312445;32;319363;-90
2023/11/11 07:54:31;;;;;;;30.17;20.30;;;;;;;;;;4336253;32;319271;-96
2023/11/11 07:56:58;;;;;;;26.97;19.80;;;;;;;;;;4331829;32;319447;-90
2023/11/11 07:59:24;;;;;;;28.73;20.27;;;;;;;;;;4330523;32;358193;-90
2023/11/11 08:01:51;;;;;;;31.53;21.20;;;;;;;;;;4318970;32;318626;-90
2023/11/11 08:04:18;;;;;;;32.77;24.63;;;;;;;;;;4334680;32;318494;-90
2023/11/11 08:06:45;;;;;;;27.03;21.77;;;;;;;;;;4339455;32;318683;-90
2023/11/11 08:09:16;;;;;;;21.87;16.93;;;;;;;;;;4329782;32;319134;-94
2023/11/11 08:11:43;;;;;;;29.47;18.10;;;;;;;;;;4321762;32;319207;-94
2023/11/11 08:14:10;;;;;;;35.70;25.67;;;;;;;;;;4327914;32;319782;-93
2023/11/11 08:16:37;;;;;;;24.67;13.73;;;;;;;;;;4335151;32;319245;-95
2023/11/11 08:19:05;;;;;;;10.60;6.37;;;;;;;;;;4322291;32;318783;-96
2023/11/11 08:21:33;;;;;;;32.60;19.13;;;;;;;;;;4334750;32;317660;-94
2023/11/11 08:24:00;;;;;;;83.75;46.50;;;;;;;;;;4316226;32;319169;-83
2023/11/11 08:26:28;;;;;;;18.37;12.90;;;;;;;;;;4345609;32;340405;-81
2023/11/11 08:28:55;;;;;;;11.70;8.60;;;;;;;;;;4332948;32;319300;-82
2023/11/11 08:31:22;;;;;;;9.80;8.17;;;;;;;;;;4331442;32;318384;-85
2023/11/11 08:33:49;;;;;;;12.50;8.33;;;;;;;;;;4321547;32;319313;-89
2023/11/11 08:36:15;;;;;;;11.60;8.00;;;;;;;;;;4330031;32;330571;-83
2023/11/11 08:38:42;;;;;;;16.00;10.63;;;;;;;;;;4321594;32;318310;-88
2023/11/11 08:41:09;;;;;;;19.90;11.17;;;;;;;;;;4330289;32;320093;-85
2023/11/11 08:43:38;;;;;;;18.87;9.53;;;;;;;;;;4328390;32;318876;-87
2023/11/11 08:46:07;;;;;;;13.90;7.80;;;;;;;;;;4308313;32;418141;-84
2023/11/11 08:48:38;;;;;;;12.03;7.30;;;;;;;;;;4326740;32;317959;-86
2023/11/11 08:51:05;;;;;;;11.77;6.73;;;;;;;;;;4314840;32;416056;-84
2023/11/11 08:53:33;;;;;;;9.90;5.43;;;;;;;;;;4329635;32;318749;-84
2023/11/11 08:55:59;;;;;;;8.27;5.80;;;;;;;;;;4315530;32;316785;-84
2023/11/11 08:58:27;;;;;;;9.53;6.00;;;;;;;;;;4334851;32;316367;-86
2023/11/11 09:00:56;;;;;;;12.20;7.10;;;;;;;;;;4323517;32;317236;-85
2023/11/11 09:03:23;;;;;;;9.23;4.97;;;;;;;;;;4334667;32;318156;-84
2023/11/11 09:05:50;;;;;;;12.00;4.90;;;;;;;;;;4319831;32;317569;-95
2023/11/11 09:08:17;;;;;;;8.13;5.80;;;;;;;;;;4310115;32;318547;-84
2023/11/11 09:10:44;;;;;;;9.73;5.27;;;;;;;;;;4328420;32;316858;-84
2023/11/11 09:13:11;;;;;;;8.10;5.03;;;;;;;;;;4341077;32;317079;-87
2023/11/11 09:15:38;;;;;;;6.53;4.73;;;;;;;;;;4337971;33;316667;-86
2023/11/11 09:18:07;;;;;;;7.93;4.20;;;;;;;;;;4319171;32;317280;-85
2023/11/11 09:20:34;;;;;;;13.97;8.27;;;;;;;;;;4334270;32;316687;-86
2023/11/11 09:23:01;;;;;;;9.87;6.23;;;;;;;;;;4324612;32;318221;-85
2023/11/11 09:25:29;;;;;;;9.30;5.43;;;;;;;;;;4334932;32;317204;-87
2023/11/11 09:27:57;;;;;;;4.70;3.93;;;;;;;;;;4303522;33;317427;-86
2023/11/11 09:30:24;;;;;;;8.47;4.43;;;;;;;;;;4335609;32;316586;-86
2023/11/11 09:32:53;;;;;;;9.30;4.43;;;;;;;;;;4324878;32;339275;-86
2023/11/11 09:35:21;;;;;;;10.23;5.33;;;;;;;;;;4336882;32;317526;-86
2023/11/11 09:37:49;;;;;;;9.87;6.53;;;;;;;;;;4324755;32;317792;-93
2023/11/11 09:40:16;;;;;;;15.10;10.73;;;;;;;;;;4335544;32;316801;-86
2023/11/11 09:42:43;;;;;;;14.33;7.10;;;;;;;;;;4325940;32;319779;-85
2023/11/11 09:45:12;;;;;;;10.23;7.00;;;;;;;;;;4336188;32;318055;-85
2023/11/11 09:47:42;;;;;;;5.87;4.17;;;;;;;;;;4337557;32;318157;-87
2023/11/11 09:50:10;;;;;;;6.97;5.07;;;;;;;;;;4317902;32;416402;-85
2023/11/11 09:52:40;;;;;;;6.33;4.30;;;;;;;;;;4335444;32;316659;-84
2023/11/11 09:55:08;;;;;;;12.37;6.87;;;;;;;;;;4323981;32;416984;-85
2023/11/11 09:57:36;;;;;;;11.27;7.20;;;;;;;;;;4335747;32;318587;-89
2023/11/11 10:00:05;;;;;;;11.57;7.43;;;;;;;;;;4318273;32;317790;-86
2023/11/11 10:02:32;;;;;;;8.53;7.27;;;;;;;;;;4336372;32;317907;-88
2023/11/11 10:04:59;;;;;;;16.37;9.97;;;;;;;;;;4326576;32;316905;-88
2023/11/11 10:07:26;;;;;;;28.03;14.00;;;;;;;;;;4334522;32;319026;-84
2023/11/11 10:09:55;;;;;;;10.00;6.85;;;;;;;;;;4318888;32;319166;-91
2023/11/11 10:12:22;;;;;;;8.63;5.53;;;;;;;;;;4334597;32;317631;-89
2023/11/11 10:14:49;;;;;;;5.68;3.95;;;;;;;;;;4325936;32;317757;-90
2023/11/11 10:17:16;;;;;;;2.27;1.60;;;;;;;;;;4336437;32;317095;-88
2023/11/11 10:19:43;;;;;;;1.73;1.47;;;;;;;;;;4325886;32;317093;-88
2023/11/11 10:22:11;;;;;;;1.97;1.40;;;;;;;;;;4327846;32;316715;-87
2023/11/11 10:24:38;;;;;;;2.67;0.90;;;;;;;;;;4337591;32;316657;-86
2023/11/11 10:27:07;;;;;;;4.23;1.87;;;;;;;;;;4313399;32;316651;-82
2023/11/11 10:29:36;;;;;;;1.37;1.10;;;;;;;;;;4333178;32;316751;-83
2023/11/11 10:32:08;;;;;;;1.80;1.30;;;;;;;;;;4320574;32;317252;-90
2023/11/11 10:34:36;;;;;;;2.47;1.33;;;;;;;;;;4336075;32;316632;-85
2023/11/11 10:37:04;;;;;;;3.85;2.30;;;;;;;;;;4325077;32;316812;-90
2023/11/11 10:39:34;;;;;;;1.83;0.98;;;;;;;;;;4336430;32;316553;-91
2023/11/11 10:42:02;;;;;;;2.42;1.48;;;;;;;;;;4318271;32;316666;-89
2023/11/11 10:44:32;;;;;;;4.73;1.90;;;;;;;;;;4334917;32;317233;-90
2023/11/11 10:46:59;;;;;;;4.97;2.97;;;;;;;;;;4324024;32;350264;-90
2023/11/11 10:49:26;;;;;;;5.60;2.67;;;;;;;;;;4322532;32;316612;-91
2023/11/11 10:51:56;;;;;;;3.73;1.77;;;;;;;;;;4310077;32;317057;-88
2023/11/11 10:54:25;;;;;;;8.35;5.05;;;;;;;;;;4330490;32;316610;-90
2023/11/11 10:56:53;;;;;;;4.53;2.62;;;;;;;;;;4321582;32;316606;-89
2023/11/11 10:59:20;;;;;;;3.80;2.25;;;;;;;;;;4330497;32;317390;-89
2023/11/11 11:01:49;;;;;;;2.50;1.90;;;;;;;;;;4311107;32;317617;-88
2023/11/11 11:04:16;;;;;;;1.83;1.20;;;;;;;;;;4324614;32;316648;-88
2023/11/11 11:06:49;;;;;;;6.15;3.00;;;;;;;;;;4317865;32;341511;-87
2023/11/11 11:09:27;;;;;;;5.12;2.35;;;;;;;;;;4335861;32;316801;-85
2023/11/11 11:12:06;;;;;;;5.22;3.33;;;;;;;;;;4306150;32;316898;-90
2023/11/11 11:14:46;;;;;;;5.15;1.90;;;;;;;;;;4338348;32;316324;-91
2023/11/11 11:17:16;;;;;;;2.92;1.75;;;;;;;;;;4318139;32;416474;-86
2023/11/11 11:19:56;;;;;;;4.35;1.33;;;;;;;;;;4327656;32;317172;-88
2023/11/11 11:22:33;;;;;;;1.67;1.50;;;;;;;;;;4327618;32;316552;-89
2023/11/11 11:25:00;;;;;;;2.58;1.85;;;;;;;;;;4303978;33;317280;-83
2023/11/11 11:27:28;;;;;;;1.73;1.12;;;;;;;;;;4320964;33;317511;-88
2023/11/11 11:29:55;;;;;;;1.08;0.98;;;;;;;;;;4315108;32;331521;-90
2023/11/11 11:32:27;;;;;;;3.35;1.50;;;;;;;;;;4338017;32;317257;-89
2023/11/11 11:35:27;;;;;;;2.10;1.35;;;;;;;;;;4312498;32;317487;-87
2023/11/11 11:37:55;;;;;;;1.45;1.20;;;;;;;;;;4321374;32;316769;-85
2023/11/11 11:40:23;;;;;;;2.10;1.40;;;;;;;;;;4342172;32;316749;-93
2023/11/11 11:42:53;;;;;;;7.00;2.62;;;;;;;;;;4319950;32;316438;-87
2023/11/11 11:45:29;;;;;;;2.55;1.60;;;;;;;;;;4329462;32;316103;-85
2023/11/11 11:47:58;;;;;;;2.40;1.23;;;;;;;;;;4314157;32;317580;-94
2023/11/11 11:50:26;;;;;;;2.63;1.10;;;;;;;;;;4330837;32;316516;-89
2023/11/11 11:52:53;;;;;;;1.70;0.90;;;;;;;;;;4318797;32;317653;-88
2023/11/11 11:55:22;;;;;;;1.15;0.90;;;;;;;;;;4327207;32;317220;-86
2023/11/11 11:57:56;;;;;;;1.87;1.20;;;;;;;;;;4311862;32;316702;-94
2023/11/11 12:00:24;;;;;;;2.83;1.37;;;;;;;;;;4331072;32;317214;-91
2023/11/11 12:02:54;;;;;;;2.60;1.75;;;;;;;;;;4314982;32;317463;-95
2023/11/11 12:05:24;;;;;;;6.30;1.50;;;;;;;;;;4305617;32;331447;-93
2023/11/11 12:07:55;;;;;;;7.70;1.90;;;;;;;;;;4317790;32;317401;-92
2023/11/11 12:10:22;;;;;;;2.75;1.62;;;;;;;;;;4329563;32;316264;-93
2023/11/11 12:12:50;;;;;;;2.53;1.62;;;;;;;;;;4326911;32;316584;-91
2023/11/11 12:15:18;;;;;;;3.65;2.05;;;;;;;;;;4308820;32;317946;-91
2023/11/11 12:17:46;;;;;;;5.80;2.58;;;;;;;;;;4322079;32;316463;-94
2023/11/11 12:20:25;;;;;;;6.62;3.70;;;;;;;;;;4328380;32;316149;-91
2023/11/11 12:22:54;;;;;;;3.87;2.28;;;;;;;;;;4334625;32;317522;-89
2023/11/11 12:25:20;;;;;;;2.40;1.12;;;;;;;;;;4328014;33;317569;-87
2023/11/11 12:27:50;;;;;;;2.72;1.60;;;;;;;;;;4324364;33;317180;-86
2023/11/11 12:30:20;;;;;;;2.33;1.37;;;;;;;;;;4332441;32;317215;-91
2023/11/11 12:33:02;;;;;;;2.70;1.20;;;;;;;;;;4318921;33;317092;-90
2023/11/11 12:35:29;;;;;;;1.58;1.30;;;;;;;;;;4323485;32;316596;-89
2023/11/11 12:37:58;;;;;;;5.32;2.85;;;;;;;;;;4310326;32;316475;-87
2023/11/11 12:40:31;;;;;;;3.70;1.90;;;;;;;;;;4321032;33;317786;-88
2023/11/11 12:42:58;;;;;;;7.27;5.03;;;;;;;;;;4304946;33;317418;-88
2023/11/11 12:45:25;;;;;;;3.23;2.20;;;;;;;;;;4315153;33;317152;-90
2023/11/11 12:47:53;;;;;;;2.57;1.50;;;;;;;;;;4297484;33;317127;-88
2023/11/11 12:50:31;;;;;;;4.45;1.42;;;;;;;;;;4293956;33;316550;-88
2023/11/11 12:53:09;;;;;;;2.60;1.00;;;;;;;;;;4311044;33;316528;-89
2023/11/11 12:55:36;;;;;;;1.87;1.10;;;;;;;;;;4329391;33;317412;-89
2023/11/11 12:58:22;;;;;;;1.70;0.90;;;;;;;;;;4312353;33;317328;-91
2023/11/11 13:00:50;;;;;;;1.10;0.93;;;;;;;;;;4305352;33;317165;-91
2023/11/11 13:03:25;;;;;;;5.57;1.17;;;;;;;;;;4317087;33;317057;-89
2023/11/11 13:05:53;;;;;;;1.80;1.00;;;;;;;;;;4297422;33;317191;-87
2023/11/11 13:08:22;;;;;;;1.75;1.20;;;;;;;;;;4326267;33;316478;-90
2023/11/11 13:10:53;;;;;;;2.08;1.10;;;;;;;;;;4325705;32;316969;-90
2023/11/11 13:13:21;;;;;;;2.40;1.40;;;;;;;;;;4345617;32;316365;-89
2023/11/11 13:15:49;;;;;;;1.30;1.10;;;;;;;;;;4329196;32;317458;-87
2023/11/11 13:18:17;;;;;;;2.28;1.42;;;;;;;;;;4332501;32;317354;-88
2023/11/11 13:20:46;;;;;;;5.80;3.35;;;;;;;;;;4322815;32;317096;-89
2023/11/11 13:23:19;;;;;;;6.37;1.58;;;;;;;;;;4334296;32;317213;-88
2023/11/11 13:25:50;;;;;;;2.45;1.60;;;;;;;;;;4322703;32;317266;-91
2023/11/11 13:28:17;;;;;;;2.13;1.40;;;;;;;;;;4333832;32;316403;-91
2023/11/11 13:30:46;;;;;;;3.65;1.65;;;;;;;;;;4322994;32;317249;-90
2023/11/11 13:33:14;;;;;;;2.77;1.87;;;;;;;;;;4332637;32;317283;-89
2023/11/11 13:35:45;;;;;;;3.55;1.90;;;;;;;;;;4322329;32;317015;-91
2023/11/11 13:38:15;;;;;;;7.32;2.20;;;;;;;;;;4317990;32;316705;-88
2023/11/11 13:40:42;;;;;;;1.67;1.27;;;;;;;;;;4308754;33;317008;-88
2023/11/11 13:43:10;;;;;;;4.05;1.67;;;;;;;;;;4318210;33;316620;-90
2023/11/11 13:45:37;;;;;;;4.35;1.67;;;;;;;;;;4330155;32;317105;-88
2023/11/11 13:48:07;;;;;;;2.85;1.87;;;;;;;;;;4316192;32;317180;-88
2023/11/11 13:50:34;;;;;;;4.07;1.85;;;;;;;;;;4333788;32;316389;-88
2023/11/11 13:53:03;;;;;;;4.18;1.60;;;;;;;;;;4323375;32;317129;-89
2023/11/11 13:55:31;;;;;;;3.70;2.05;;;;;;;;;;4331012;32;316742;-90
2023/11/11 13:58:00;;;;;;;1.95;1.17;;;;;;;;;;4314317;32;317063;-87
2023/11/11 14:00:29;;;;;;;4.70;1.70;;;;;;;;;;4333249;32;316605;-90
2023/11/11 14:02:57;;;;;;;2.35;1.62;;;;;;;;;;4309154;32;317380;-90
2023/11/11 14:05:24;;;;;;;2.75;1.30;;;;;;;;;;4323091;32;316634;-87
2023/11/11 14:07:53;;;;;;;2.70;1.40;;;;;;;;;;4316711;32;316469;-86
2023/11/11 14:10:23;;;;;;;1.63;1.13;;;;;;;;;;4326385;32;316027;-87
2023/11/11 14:12:50;;;;;;;3.42;1.80;;;;;;;;;;4314047;32;318127;-86
2023/11/11 14:15:19;;;;;;;5.18;2.67;;;;;;;;;;4325861;32;317101;-86
2023/11/11 14:17:52;;;;;;;2.50;1.77;;;;;;;;;;4323834;32;353378;-85
2023/11/11 14:20:19;;;;;;;2.90;1.98;;;;;;;;;;4312775;32;317912;-82
2023/11/11 14:22:46;;;;;;;3.55;1.75;;;;;;;;;;4329410;32;317112;-88
2023/11/11 14:25:13;;;;;;;4.00;1.92;;;;;;;;;;4317585;32;316827;-86